sensor_id;sensor_type;location;lat;lon;timestamp;pressure;altitude;pressure_sealevel;temperature;humidity
31331;BME280;34067;39.548;-76.088;2023-02-18T00:01:39;101212.56;;;-0.12;56.14
31331;BME280;34067;39.548;-76.088;2023-02-18T00:04:09;101221.02;;;-0.68;56.37
31331;BME280;34067;39.548;-76.088;2023-02-18T00:06:37;101240.27;;;-0.11;56.26
31331;BME280;34067;39.548;-76.088;2023-02-18T00:09:06;101227.77;;;0.29;55.71
31331;BME280;34067;39.548;-76.088;2023-02-18T00:11:35;101234.11;;;-0.33;55.26
31331;BME280;34067;39.548;-76.088;2023-02-18T00:14:07;101243.63;;;0.09;54.96
31331;BME280;34067;39.548;-76.088;2023-02-18T00:16:37;101243.48;;;-0.06;55.36
31331;BME280;34067;39.548;-76.088;2023-02-18T00:19:09;101254.91;;;-0.61;55.78
31331;BME280;34067;39.548;-76.088;2023-02-18T00:21:37;101262.82;;;-0.69;55.99
31331;BME280;34067;39.548;-76.088;2023-02-18T00:24:06;101274.83;;;-0.11;55.79
31331;BME280;34067;39.548;-76.088;2023-02-18T00:26:36;101314.78;;;-0.09;55.96
31331;BME280;34067;39.548;-76.088;2023-02-18T00:29:04;101280.41;;;-0.45;57.12
31331;BME280;34067;39.548;-76.088;2023-02-18T00:31:35;101296.69;;;-1.12;56.56
31331;BME280;34067;39.548;-76.088;2023-02-18T00:34:04;101297.60;;;-0.56;54.94
31331;BME280;34067;39.548;-76.088;2023-02-18T00:36:33;101320.88;;;-0.44;54.28
31331;BME280;34067;39.548;-76.088;2023-02-18T00:39:03;101319.46;;;-1.00;55.23
31331;BME280;34067;39.548;-76.088;2023-02-18T00:41:33;101346.68;;;-0.53;54.86
31331;BME280;34067;39.548;-76.088;2023-02-18T00:44:02;101331.24;;;-1.04;57.43
31331;BME280;34067;39.548;-76.088;2023-02-18T00:46:30;101340.54;;;-0.63;54.16
31331;BME280;34067;39.548;-76.088;2023-02-18T00:48:58;101403.72;;;-0.89;53.56
31331;BME280;34067;39.548;-76.088;2023-02-18T00:51:26;101365.75;;;-0.84;54.14
31331;BME280;34067;39.548;-76.088;2023-02-18T00:53:54;101363.73;;;-0.87;54.88
31331;BME280;34067;39.548;-76.088;2023-02-18T00:56:22;101378.23;;;-0.32;54.82
31331;BME280;34067;39.548;-76.088;2023-02-18T00:58:50;101398.22;;;-0.76;53.17
31331;BME280;34067;39.548;-76.088;2023-02-18T01:01:19;101408.20;;;-0.67;53.85
31331;BME280;34067;39.548;-76.088;2023-02-18T01:03:47;101414.21;;;-0.12;53.77
31331;BME280;34067;39.548;-76.088;2023-02-18T01:06:16;101416.83;;;-0.28;53.27
31331;BME280;34067;39.548;-76.088;2023-02-18T01:08:44;101422.94;;;-1.47;53.84
31331;BME280;34067;39.548;-76.088;2023-02-18T01:11:12;101427.18;;;-0.68;53.97
31331;BME280;34067;39.548;-76.088;2023-02-18T01:13:41;101421.56;;;-1.29;54.75
31331;BME280;34067;39.548;-76.088;2023-02-18T01:16:09;101428.84;;;-1.23;53.98
31331;BME280;34067;39.548;-76.088;2023-02-18T01:18:37;101435.39;;;-1.32;54.11
31331;BME280;34067;39.548;-76.088;2023-02-18T01:21:07;101430.39;;;-1.48;54.19
31331;BME280;34067;39.548;-76.088;2023-02-18T01:23:36;101447.25;;;-1.68;54.29
31331;BME280;34067;39.548;-76.088;2023-02-18T01:26:05;101445.51;;;-1.51;54.36
31331;BME280;34067;39.548;-76.088;2023-02-18T01:28:33;101441.25;;;-1.35;55.11
31331;BME280;34067;39.548;-76.088;2023-02-18T01:31:05;101477.15;;;-1.73;53.71
31331;BME280;34067;39.548;-76.088;2023-02-18T01:33:35;101450.54;;;-1.44;54.31
31331;BME280;34067;39.548;-76.088;2023-02-18T01:36:04;101469.89;;;-1.21;53.31
31331;BME280;34067;39.548;-76.088;2023-02-18T01:38:33;101495.78;;;-2.13;53.86
31331;BME280;34067;39.548;-76.088;2023-02-18T01:41:02;101484.84;;;-1.69;53.84
31331;BME280;34067;39.548;-76.088;2023-02-18T01:43:31;101491.89;;;-1.20;53.76
31331;BME280;34067;39.548;-76.088;2023-02-18T01:46:14;101540.55;;;-1.88;52.77
31331;BME280;34067;39.548;-76.088;2023-02-18T01:48:48;101538.48;;;-1.52;52.68
31331;BME280;34067;39.548;-76.088;2023-02-18T01:51:20;101523.88;;;-1.64;53.20
31331;BME280;34067;39.548;-76.088;2023-02-18T01:53:54;101541.63;;;-2.25;53.43
31331;BME280;34067;39.548;-76.088;2023-02-18T01:56:26;101534.41;;;-2.15;53.98
31331;BME280;34067;39.548;-76.088;2023-02-18T01:58:59;101541.79;;;-1.55;52.12
31331;BME280;34067;39.548;-76.088;2023-02-18T02:01:30;101553.91;;;-1.78;51.37
31331;BME280;34067;39.548;-76.088;2023-02-18T02:03:59;101551.50;;;-2.21;52.83
31331;BME280;34067;39.548;-76.088;2023-02-18T02:06:28;101583.62;;;-2.59;51.95
31331;BME280;34067;39.548;-76.088;2023-02-18T02:08:58;101581.56;;;-2.07;51.94
31331;BME280;34067;39.548;-76.088;2023-02-18T02:11:48;101572.48;;;-2.19;52.04
31331;BME280;34067;39.548;-76.088;2023-02-18T02:14:33;101589.02;;;-2.33;51.13
31331;BME280;34067;39.548;-76.088;2023-02-18T02:17:09;101634.09;;;-2.53;53.30
31331;BME280;34067;39.548;-76.088;2023-02-18T02:20:03;101609.55;;;-2.01;51.22
31331;BME280;34067;39.548;-76.088;2023-02-18T02:23:01;101641.64;;;-2.01;50.24
31331;BME280;34067;39.548;-76.088;2023-02-18T02:25:55;101622.98;;;-2.36;50.93
31331;BME280;34067;39.548;-76.088;2023-02-18T02:28:54;101624.59;;;-3.18;50.80
31331;BME280;34067;39.548;-76.088;2023-02-18T02:32:00;101641.12;;;-2.38;49.87
31331;BME280;34067;39.548;-76.088;2023-02-18T02:34:46;101651.35;;;-2.78;50.22
31331;BME280;34067;39.548;-76.088;2023-02-18T02:37:22;101650.23;;;-2.64;50.30
31331;BME280;34067;39.548;-76.088;2023-02-18T02:40:04;101646.78;;;-2.85;50.67
31331;BME280;34067;39.548;-76.088;2023-02-18T02:42:44;101667.87;;;-2.54;49.12
31331;BME280;34067;39.548;-76.088;2023-02-18T02:45:28;101649.18;;;-2.84;51.01
31331;BME280;34067;39.548;-76.088;2023-02-18T02:48:07;101653.18;;;-2.28;50.98
31331;BME280;34067;39.548;-76.088;2023-02-18T02:50:44;101668.33;;;-2.73;51.08
31331;BME280;34067;39.548;-76.088;2023-02-18T02:53:18;101671.18;;;-2.23;51.55
31331;BME280;34067;39.548;-76.088;2023-02-18T02:55:49;101671.36;;;-2.76;51.18
31331;BME280;34067;39.548;-76.088;2023-02-18T02:58:18;101674.44;;;-2.47;51.58
31331;BME280;34067;39.548;-76.088;2023-02-18T03:01:00;101678.10;;;-2.72;51.32
31331;BME280;34067;39.548;-76.088;2023-02-18T03:03:50;101699.05;;;-3.02;51.42
31331;BME280;34067;39.548;-76.088;2023-02-18T03:07:09;101710.54;;;-2.73;51.96
31331;BME280;34067;39.548;-76.088;2023-02-18T03:09:49;101701.19;;;-3.10;52.30
31331;BME280;34067;39.548;-76.088;2023-02-18T03:12:27;101702.06;;;-2.90;53.39
31331;BME280;34067;39.548;-76.088;2023-02-18T03:15:01;101728.03;;;-2.37;52.32
31331;BME280;34067;39.548;-76.088;2023-02-18T03:17:35;101763.57;;;-2.87;51.79
31331;BME280;34067;39.548;-76.088;2023-02-18T03:20:09;101749.21;;;-2.66;50.96
31331;BME280;34067;39.548;-76.088;2023-02-18T03:22:45;101753.87;;;-1.88;51.02
31331;BME280;34067;39.548;-76.088;2023-02-18T03:25:15;101759.94;;;-3.60;51.98
31331;BME280;34067;39.548;-76.088;2023-02-18T03:27:48;101769.40;;;-3.28;53.06
31331;BME280;34067;39.548;-76.088;2023-02-18T03:30:23;101767.39;;;-3.33;51.28
31331;BME280;34067;39.548;-76.088;2023-02-18T03:32:57;101791.83;;;-3.05;50.84
31331;BME280;34067;39.548;-76.088;2023-02-18T03:35:27;101799.70;;;-2.81;50.51
31331;BME280;34067;39.548;-76.088;2023-02-18T03:38:00;101793.06;;;-2.80;50.78
31331;BME280;34067;39.548;-76.088;2023-02-18T03:40:30;101815.77;;;-3.05;50.68
31331;BME280;34067;39.548;-76.088;2023-02-18T03:42:58;101787.44;;;-2.75;50.61
31331;BME280;34067;39.548;-76.088;2023-02-18T03:45:27;101806.50;;;-2.43;51.70
31331;BME280;34067;39.548;-76.088;2023-02-18T03:47:55;101813.93;;;-2.44;50.31
31331;BME280;34067;39.548;-76.088;2023-02-18T03:50:23;101825.04;;;-2.52;50.54
31331;BME280;34067;39.548;-76.088;2023-02-18T03:52:51;101862.51;;;-3.03;49.94
31331;BME280;34067;39.548;-76.088;2023-02-18T03:55:19;101829.23;;;-2.15;50.11
31331;BME280;34067;39.548;-76.088;2023-02-18T03:57:46;101832.68;;;-2.81;50.33
31331;BME280;34067;39.548;-76.088;2023-02-18T04:00:17;101850.00;;;-2.63;49.77
31331;BME280;34067;39.548;-76.088;2023-02-18T04:02:45;101847.75;;;-3.21;50.53
31331;BME280;34067;39.548;-76.088;2023-02-18T04:05:13;101851.36;;;-2.80;50.49
31331;BME280;34067;39.548;-76.088;2023-02-18T04:07:41;101877.92;;;-2.79;50.57
31331;BME280;34067;39.548;-76.088;2023-02-18T04:10:09;101858.33;;;-3.24;50.59
31331;BME280;34067;39.548;-76.088;2023-02-18T04:12:37;101874.88;;;-1.96;49.83
31331;BME280;34067;39.548;-76.088;2023-02-18T04:15:06;101922.49;;;-3.01;49.84
31331;BME280;34067;39.548;-76.088;2023-02-18T04:17:34;101887.93;;;-2.74;50.54
31331;BME280;34067;39.548;-76.088;2023-02-18T04:20:02;101911.89;;;-2.92;49.38
31331;BME280;34067;39.548;-76.088;2023-02-18T04:22:31;101912.06;;;-1.96;48.98
31331;BME280;34067;39.548;-76.088;2023-02-18T04:24:59;101897.45;;;-2.98;49.25
31331;BME280;34067;39.548;-76.088;2023-02-18T04:27:27;101904.89;;;-3.39;50.60
31331;BME280;34067;39.548;-76.088;2023-02-18T04:29:55;101911.95;;;-3.50;50.65
31331;BME280;34067;39.548;-76.088;2023-02-18T04:32:24;101902.36;;;-3.01;50.87
31331;BME280;34067;39.548;-76.088;2023-02-18T04:34:52;101903.98;;;-2.81;50.83
31331;BME280;34067;39.548;-76.088;2023-02-18T04:37:20;101929.22;;;-3.33;50.15
31331;BME280;34067;39.548;-76.088;2023-02-18T04:39:48;101919.74;;;-3.24;49.80
31331;BME280;34067;39.548;-76.088;2023-02-18T04:42:15;101932.58;;;-3.17;51.52
31331;BME280;34067;39.548;-76.088;2023-02-18T04:44:45;101944.00;;;-3.08;49.28
31331;BME280;34067;39.548;-76.088;2023-02-18T04:47:13;101940.44;;;-2.93;49.59
31331;BME280;34067;39.548;-76.088;2023-02-18T04:49:42;101947.54;;;-3.50;49.27
31331;BME280;34067;39.548;-76.088;2023-02-18T04:52:09;101940.08;;;-3.69;49.56
31331;BME280;34067;39.548;-76.088;2023-02-18T04:54:37;101967.61;;;-3.35;49.24
31331;BME280;34067;39.548;-76.088;2023-02-18T04:57:05;101969.19;;;-3.76;51.36
31331;BME280;34067;39.548;-76.088;2023-02-18T04:59:33;101954.14;;;-4.27;50.51
31331;BME280;34067;39.548;-76.088;2023-02-18T05:02:02;101979.74;;;-3.28;49.63
31331;BME280;34067;39.548;-76.088;2023-02-18T05:04:31;101978.33;;;-3.39;49.24
31331;BME280;34067;39.548;-76.088;2023-02-18T05:06:59;102001.18;;;-3.73;50.02
31331;BME280;34067;39.548;-76.088;2023-02-18T05:09:27;101972.21;;;-3.01;50.34
31331;BME280;34067;39.548;-76.088;2023-02-18T05:11:56;102041.38;;;-3.67;48.32
31331;BME280;34067;39.548;-76.088;2023-02-18T05:14:24;101985.67;;;-3.06;48.87
31331;BME280;34067;39.548;-76.088;2023-02-18T05:16:52;102005.48;;;-3.60;47.88
31331;BME280;34067;39.548;-76.088;2023-02-18T05:19:19;101998.63;;;-3.45;48.49
31331;BME280;34067;39.548;-76.088;2023-02-18T05:21:47;101998.66;;;-3.21;47.90
31331;BME280;34067;39.548;-76.088;2023-02-18T05:24:14;102017.94;;;-3.53;48.45
31331;BME280;34067;39.548;-76.088;2023-02-18T05:26:42;102024.62;;;-4.18;50.74
31331;BME280;34067;39.548;-76.088;2023-02-18T05:29:11;102028.70;;;-3.72;48.40
31331;BME280;34067;39.548;-76.088;2023-02-18T05:31:38;102051.76;;;-3.98;48.36
31331;BME280;34067;39.548;-76.088;2023-02-18T05:34:06;102041.82;;;-3.27;48.30
31331;BME280;34067;39.548;-76.088;2023-02-18T05:36:34;102070.94;;;-3.51;49.39
31331;BME280;34067;39.548;-76.088;2023-02-18T05:39:02;102064.16;;;-3.12;48.05
31331;BME280;34067;39.548;-76.088;2023-02-18T05:41:30;102046.22;;;-3.10;49.21
31331;BME280;34067;39.548;-76.088;2023-02-18T05:43:58;102069.45;;;-3.74;47.33
31331;BME280;34067;39.548;-76.088;2023-02-18T05:46:27;102050.82;;;-2.98;48.78
31331;BME280;34067;39.548;-76.088;2023-02-18T05:48:55;102060.63;;;-3.01;46.49
31331;BME280;34067;39.548;-76.088;2023-02-18T05:51:23;102059.18;;;-3.62;47.90
31331;BME280;34067;39.548;-76.088;2023-02-18T05:53:51;102058.76;;;-3.39;47.69
31331;BME280;34067;39.548;-76.088;2023-02-18T05:56:18;102083.22;;;-3.19;47.69
31331;BME280;34067;39.548;-76.088;2023-02-18T05:58:46;102085.63;;;-3.64;47.96
31331;BME280;34067;39.548;-76.088;2023-02-18T06:03:10;102096.68;;;-3.56;47.69
31331;BME280;34067;39.548;-76.088;2023-02-18T06:05:38;102101.23;;;-3.47;48.59
31331;BME280;34067;39.548;-76.088;2023-02-18T06:08:06;102101.95;;;-4.67;48.13
31331;BME280;34067;39.548;-76.088;2023-02-18T06:10:34;102116.00;;;-3.87;48.32
31331;BME280;34067;39.548;-76.088;2023-02-18T06:13:02;102115.14;;;-4.21;48.02
31331;BME280;34067;39.548;-76.088;2023-02-18T06:15:29;102107.54;;;-4.15;47.98
31331;BME280;34067;39.548;-76.088;2023-02-18T06:17:57;102122.97;;;-4.24;47.87
31331;BME280;34067;39.548;-76.088;2023-02-18T06:20:25;102131.32;;;-4.34;47.87
31331;BME280;34067;39.548;-76.088;2023-02-18T06:22:52;102137.65;;;-3.55;46.47
31331;BME280;34067;39.548;-76.088;2023-02-18T06:25:20;102143.84;;;-3.60;47.46
31331;BME280;34067;39.548;-76.088;2023-02-18T06:27:48;102138.06;;;-3.74;47.14
31331;BME280;34067;39.548;-76.088;2023-02-18T06:30:16;102133.13;;;-4.65;48.45
31331;BME280;34067;39.548;-76.088;2023-02-18T06:32:45;102133.88;;;-3.31;47.34
31331;BME280;34067;39.548;-76.088;2023-02-18T06:35:13;102164.70;;;-3.39;46.28
31331;BME280;34067;39.548;-76.088;2023-02-18T06:37:40;102173.27;;;-3.65;46.60
31331;BME280;34067;39.548;-76.088;2023-02-18T06:40:09;102180.52;;;-4.65;47.21
31331;BME280;34067;39.548;-76.088;2023-02-18T06:42:37;102183.26;;;-4.11;47.02
31331;BME280;34067;39.548;-76.088;2023-02-18T06:45:04;102218.66;;;-4.56;47.75
31331;BME280;34067;39.548;-76.088;2023-02-18T06:47:32;102195.28;;;-4.64;46.89
31331;BME280;34067;39.548;-76.088;2023-02-18T06:49:59;102204.42;;;-4.73;47.11
31331;BME280;34067;39.548;-76.088;2023-02-18T06:52:27;102192.96;;;-4.51;46.97
31331;BME280;34067;39.548;-76.088;2023-02-18T06:54:55;102205.21;;;-5.14;48.00
31331;BME280;34067;39.548;-76.088;2023-02-18T06:57:24;102220.58;;;-5.38;47.88
31331;BME280;34067;39.548;-76.088;2023-02-18T06:59:52;102220.36;;;-4.14;47.04
31331;BME280;34067;39.548;-76.088;2023-02-18T07:02:21;102220.76;;;-4.76;47.04
31331;BME280;34067;39.548;-76.088;2023-02-18T07:04:49;102228.56;;;-4.74;47.00
31331;BME280;34067;39.548;-76.088;2023-02-18T07:07:18;102218.13;;;-5.43;47.73
31331;BME280;34067;39.548;-76.088;2023-02-18T07:09:46;102256.78;;;-4.62;47.43
31331;BME280;34067;39.548;-76.088;2023-02-18T07:12:14;102245.04;;;-4.20;48.40
31331;BME280;34067;39.548;-76.088;2023-02-18T07:14:42;102243.30;;;-4.16;46.79
31331;BME280;34067;39.548;-76.088;2023-02-18T07:17:09;102249.19;;;-4.30;47.29
31331;BME280;34067;39.548;-76.088;2023-02-18T07:19:37;102250.84;;;-4.80;46.23
31331;BME280;34067;39.548;-76.088;2023-02-18T07:22:06;102245.78;;;-5.07;46.29
31331;BME280;34067;39.548;-76.088;2023-02-18T07:24:33;102260.77;;;-5.27;47.06
31331;BME280;34067;39.548;-76.088;2023-02-18T07:27:02;102265.86;;;-4.73;45.82
31331;BME280;34067;39.548;-76.088;2023-02-18T07:29:29;102267.17;;;-5.84;46.85
31331;BME280;34067;39.548;-76.088;2023-02-18T07:31:57;102255.21;;;-4.95;46.21
31331;BME280;34067;39.548;-76.088;2023-02-18T07:34:24;102283.23;;;-4.78;46.09
31331;BME280;34067;39.548;-76.088;2023-02-18T07:36:52;102282.33;;;-4.90;45.40
31331;BME280;34067;39.548;-76.088;2023-02-18T07:39:20;102298.70;;;-4.89;45.57
31331;BME280;34067;39.548;-76.088;2023-02-18T07:41:47;102279.87;;;-4.75;47.45
31331;BME280;34067;39.548;-76.088;2023-02-18T07:44:15;102306.49;;;-4.69;45.32
31331;BME280;34067;39.548;-76.088;2023-02-18T07:46:43;102301.86;;;-4.92;45.58
31331;BME280;34067;39.548;-76.088;2023-02-18T07:49:10;102314.35;;;-5.43;45.93
31331;BME280;34067;39.548;-76.088;2023-02-18T07:51:38;102327.40;;;-5.16;45.80
31331;BME280;34067;39.548;-76.088;2023-02-18T07:54:06;102321.54;;;-5.49;45.96
31331;BME280;34067;39.548;-76.088;2023-02-18T07:56:33;102330.27;;;-4.94;45.46
31331;BME280;34067;39.548;-76.088;2023-02-18T07:59:02;102343.72;;;-6.20;45.83
31331;BME280;34067;39.548;-76.088;2023-02-18T08:01:30;102330.32;;;-5.66;46.07
31331;BME280;34067;39.548;-76.088;2023-02-18T08:03:57;102332.09;;;-5.56;46.02
31331;BME280;34067;39.548;-76.088;2023-02-18T08:06:29;102344.54;;;-6.06;46.15
31331;BME280;34067;39.548;-76.088;2023-02-18T08:08:58;102339.68;;;-6.27;45.51
31331;BME280;34067;39.548;-76.088;2023-02-18T08:11:27;102353.80;;;-5.20;45.42
31331;BME280;34067;39.548;-76.088;2023-02-18T08:13:55;102345.31;;;-5.30;44.60
31331;BME280;34067;39.548;-76.088;2023-02-18T08:16:23;102361.97;;;-5.75;44.89
31331;BME280;34067;39.548;-76.088;2023-02-18T08:18:51;102352.91;;;-4.38;44.37
31331;BME280;34067;39.548;-76.088;2023-02-18T08:21:22;102389.95;;;-5.46;45.08
31331;BME280;34067;39.548;-76.088;2023-02-18T08:23:51;102378.40;;;-5.68;45.06
31331;BME280;34067;39.548;-76.088;2023-02-18T08:26:19;102372.12;;;-5.31;45.91
31331;BME280;34067;39.548;-76.088;2023-02-18T08:28:48;102372.94;;;-4.84;45.64
31331;BME280;34067;39.548;-76.088;2023-02-18T08:31:17;102392.48;;;-5.90;45.15
31331;BME280;34067;39.548;-76.088;2023-02-18T08:33:46;102394.35;;;-5.32;44.98
31331;BME280;34067;39.548;-76.088;2023-02-18T08:36:14;102391.64;;;-5.09;44.19
31331;BME280;34067;39.548;-76.088;2023-02-18T08:38:42;102394.81;;;-5.66;45.19
31331;BME280;34067;39.548;-76.088;2023-02-18T08:41:10;102414.12;;;-6.03;44.86
31331;BME280;34067;39.548;-76.088;2023-02-18T08:43:39;102400.93;;;-5.67;45.17
31331;BME280;34067;39.548;-76.088;2023-02-18T08:46:07;102407.99;;;-5.90;44.98
31331;BME280;34067;39.548;-76.088;2023-02-18T08:48:34;102421.02;;;-5.77;44.90
31331;BME280;34067;39.548;-76.088;2023-02-18T08:51:12;102423.27;;;-6.33;44.75
31331;BME280;34067;39.548;-76.088;2023-02-18T08:53:40;102427.86;;;-6.02;44.77
31331;BME280;34067;39.548;-76.088;2023-02-18T08:56:10;102437.08;;;-6.01;44.46
31331;BME280;34067;39.548;-76.088;2023-02-18T08:58:37;102458.23;;;-5.89;44.45
31331;BME280;34067;39.548;-76.088;2023-02-18T09:01:08;102446.07;;;-6.90;46.16
31331;BME280;34067;39.548;-76.088;2023-02-18T09:03:36;102446.32;;;-6.51;45.22
31331;BME280;34067;39.548;-76.088;2023-02-18T09:06:05;102467.39;;;-5.76;44.85
31331;BME280;34067;39.548;-76.088;2023-02-18T09:08:33;102462.58;;;-6.57;44.99
31331;BME280;34067;39.548;-76.088;2023-02-18T09:11:02;102469.57;;;-6.69;45.27
31331;BME280;34067;39.548;-76.088;2023-02-18T09:13:31;102473.66;;;-6.66;45.34
31331;BME280;34067;39.548;-76.088;2023-02-18T09:16:01;102483.95;;;-6.89;45.68
31331;BME280;34067;39.548;-76.088;2023-02-18T09:18:30;102500.03;;;-5.72;45.37
31331;BME280;34067;39.548;-76.088;2023-02-18T09:21:00;102503.82;;;-6.14;44.63
31331;BME280;34067;39.548;-76.088;2023-02-18T09:23:29;102496.26;;;-6.64;45.22
31331;BME280;34067;39.548;-76.088;2023-02-18T09:25:59;102495.38;;;-6.24;45.94
31331;BME280;34067;39.548;-76.088;2023-02-18T09:28:31;102508.73;;;-6.35;45.34
31331;BME280;34067;39.548;-76.088;2023-02-18T09:31:04;102530.42;;;-6.62;45.70
31331;BME280;34067;39.548;-76.088;2023-02-18T09:33:34;102535.30;;;-5.45;44.70
31331;BME280;34067;39.548;-76.088;2023-02-18T09:36:03;102543.06;;;-5.94;44.95
31331;BME280;34067;39.548;-76.088;2023-02-18T09:38:31;102535.65;;;-5.39;44.91
31331;BME280;34067;39.548;-76.088;2023-02-18T09:41:02;102533.20;;;-5.78;44.85
31331;BME280;34067;39.548;-76.088;2023-02-18T09:43:35;102546.16;;;-6.36;45.51
31331;BME280;34067;39.548;-76.088;2023-02-18T09:46:08;102546.41;;;-6.02;44.69
31331;BME280;34067;39.548;-76.088;2023-02-18T09:48:43;102550.04;;;-6.56;45.58
31331;BME280;34067;39.548;-76.088;2023-02-18T09:51:13;102564.37;;;-6.26;45.36
31331;BME280;34067;39.548;-76.088;2023-02-18T09:53:42;102577.60;;;-6.59;47.18
31331;BME280;34067;39.548;-76.088;2023-02-18T09:56:12;102570.21;;;-6.63;46.16
31331;BME280;34067;39.548;-76.088;2023-02-18T09:58:42;102567.40;;;-6.54;45.73
31331;BME280;34067;39.548;-76.088;2023-02-18T10:01:17;102580.45;;;-5.87;45.24
31331;BME280;34067;39.548;-76.088;2023-02-18T10:03:48;102585.21;;;-6.16;45.12
31331;BME280;34067;39.548;-76.088;2023-02-18T10:06:20;102610.36;;;-6.80;45.98
31331;BME280;34067;39.548;-76.088;2023-02-18T10:08:50;102591.89;;;-6.70;45.72
31331;BME280;34067;39.548;-76.088;2023-02-18T10:11:30;102589.19;;;-6.92;45.34
31331;BME280;34067;39.548;-76.088;2023-02-18T10:14:00;102599.12;;;-5.51;44.32
31331;BME280;34067;39.548;-76.088;2023-02-18T10:16:29;102601.72;;;-6.21;44.66
31331;BME280;34067;39.548;-76.088;2023-02-18T10:19:00;102609.68;;;-6.34;44.86
31331;BME280;34067;39.548;-76.088;2023-02-18T10:21:32;102606.16;;;-5.42;44.61
31331;BME280;34067;39.548;-76.088;2023-02-18T10:24:04;102602.00;;;-7.21;45.56
31331;BME280;34067;39.548;-76.088;2023-02-18T10:26:36;102626.15;;;-6.96;45.43
31331;BME280;34067;39.548;-76.088;2023-02-18T10:29:12;102632.69;;;-6.74;45.77
31331;BME280;34067;39.548;-76.088;2023-02-18T10:31:45;102639.82;;;-5.79;44.73
31331;BME280;34067;39.548;-76.088;2023-02-18T10:34:35;102634.86;;;-5.42;44.62
31331;BME280;34067;39.548;-76.088;2023-02-18T10:37:14;102635.72;;;-4.93;44.83
31331;BME280;34067;39.548;-76.088;2023-02-18T10:39:59;102650.46;;;-6.18;45.82
31331;BME280;34067;39.548;-76.088;2023-02-18T10:42:38;102656.87;;;-7.09;46.22
31331;BME280;34067;39.548;-76.088;2023-02-18T10:45:17;102658.07;;;-6.66;45.85
31331;BME280;34067;39.548;-76.088;2023-02-18T10:47:57;102656.72;;;-5.51;44.88
31331;BME280;34067;39.548;-76.088;2023-02-18T10:50:32;102682.06;;;-6.59;44.96
31331;BME280;34067;39.548;-76.088;2023-02-18T10:53:07;102674.22;;;-5.78;44.91
31331;BME280;34067;39.548;-76.088;2023-02-18T10:55:40;102702.12;;;-6.12;44.62
31331;BME280;34067;39.548;-76.088;2023-02-18T10:58:27;102707.75;;;-6.22;45.76
31331;BME280;34067;39.548;-76.088;2023-02-18T11:00:57;102711.67;;;-6.24;44.85
31331;BME280;34067;39.548;-76.088;2023-02-18T11:03:35;102710.97;;;-5.99;44.64
31331;BME280;34067;39.548;-76.088;2023-02-18T11:06:15;102709.51;;;-6.45;45.86
31331;BME280;34067;39.548;-76.088;2023-02-18T11:08:47;102707.01;;;-6.92;45.74
31331;BME280;34067;39.548;-76.088;2023-02-18T11:11:19;102699.60;;;-5.51;44.54
31331;BME280;34067;39.548;-76.088;2023-02-18T11:13:53;102702.98;;;-5.27;44.06
31331;BME280;34067;39.548;-76.088;2023-02-18T11:16:23;102699.89;;;-5.92;43.95
31331;BME280;34067;39.548;-76.088;2023-02-18T11:18:51;102697.65;;;-6.49;44.74
31331;BME280;34067;39.548;-76.088;2023-02-18T11:21:23;102698.79;;;-5.86;44.36
31331;BME280;34067;39.548;-76.088;2023-02-18T11:23:57;102698.89;;;-5.43;44.98
31331;BME280;34067;39.548;-76.088;2023-02-18T11:26:33;102712.69;;;-5.78;44.74
31331;BME280;34067;39.548;-76.088;2023-02-18T11:29:06;102731.45;;;-7.13;45.93
31331;BME280;34067;39.548;-76.088;2023-02-18T11:31:41;102733.68;;;-6.39;45.88
31331;BME280;34067;39.548;-76.088;2023-02-18T11:34:16;102732.96;;;-5.68;44.76
31331;BME280;34067;39.548;-76.088;2023-02-18T11:36:46;102735.14;;;-6.64;44.74
31331;BME280;34067;39.548;-76.088;2023-02-18T11:39:19;102742.42;;;-7.04;45.85
31331;BME280;34067;39.548;-76.088;2023-02-18T11:41:53;102753.33;;;-6.76;45.47
31331;BME280;34067;39.548;-76.088;2023-02-18T11:44:27;102750.14;;;-6.51;45.33
31331;BME280;34067;39.548;-76.088;2023-02-18T11:47:00;102756.35;;;-6.30;45.34
31331;BME280;34067;39.548;-76.088;2023-02-18T11:49:30;102760.71;;;-7.62;46.10
31331;BME280;34067;39.548;-76.088;2023-02-18T11:52:12;102754.15;;;-6.69;45.66
31331;BME280;34067;39.548;-76.088;2023-02-18T11:54:41;102763.06;;;-6.88;45.39
31331;BME280;34067;39.548;-76.088;2023-02-18T11:57:12;102776.39;;;-6.79;44.97
31331;BME280;34067;39.548;-76.088;2023-02-18T11:59:42;102780.11;;;-6.64;44.86
31331;BME280;34067;39.548;-76.088;2023-02-18T12:02:27;102797.88;;;-7.63;46.42
31331;BME280;34067;39.548;-76.088;2023-02-18T12:05:02;102792.40;;;-6.35;45.60
31331;BME280;34067;39.548;-76.088;2023-02-18T12:07:40;102797.18;;;-6.80;45.02
31331;BME280;34067;39.548;-76.088;2023-02-18T12:10:14;102802.03;;;-6.95;45.58
31331;BME280;34067;39.548;-76.088;2023-02-18T12:12:49;102807.55;;;-6.08;44.33
31331;BME280;34067;39.548;-76.088;2023-02-18T12:15:26;102801.18;;;-5.91;44.10
31331;BME280;34067;39.548;-76.088;2023-02-18T12:18:12;102822.33;;;-6.69;43.91
31331;BME280;34067;39.548;-76.088;2023-02-18T12:21:04;102824.57;;;-5.59;43.95
31331;BME280;34067;39.548;-76.088;2023-02-18T12:23:43;102846.14;;;-7.26;44.75
31331;BME280;34067;39.548;-76.088;2023-02-18T12:26:24;102856.02;;;-6.81;44.68
31331;BME280;34067;39.548;-76.088;2023-02-18T12:29:07;102852.69;;;-6.39;45.14
31331;BME280;34067;39.548;-76.088;2023-02-18T12:32:11;102861.43;;;-5.04;44.01
31331;BME280;34067;39.548;-76.088;2023-02-18T12:34:54;102867.47;;;-5.88;44.36
31331;BME280;34067;39.548;-76.088;2023-02-18T12:37:45;102876.01;;;-5.06;44.37
31331;BME280;34067;39.548;-76.088;2023-02-18T12:40:35;102884.27;;;-5.69;44.07
31331;BME280;34067;39.548;-76.088;2023-02-18T12:43:17;102909.73;;;-7.01;44.67
31331;BME280;34067;39.548;-76.088;2023-02-18T12:46:10;102899.49;;;-6.08;45.11
31331;BME280;34067;39.548;-76.088;2023-02-18T12:49:03;102906.90;;;-6.19;45.01
31331;BME280;34067;39.548;-76.088;2023-02-18T12:51:42;102913.11;;;-6.79;44.96
31331;BME280;34067;39.548;-76.088;2023-02-18T12:54:28;102905.68;;;-6.41;44.91
31331;BME280;34067;39.548;-76.088;2023-02-18T12:57:28;102916.96;;;-5.48;44.90